Latest Weather Observations for Marble Bar

IDW60801

Issued at 9:33 pm WST Monday 25 July 2016 (issued every 30 minutes, with the page automatically refreshed every 10 minutes)

About weather observations | Map of weather stations | Latest weather observations for WA | Other Formats
Station Details ID: 004106 Name: MARBLE BAR Lat: -21.18 Lon: 119.75 Height: 182.3 m
Data from the previous 72 hours. | See also: Recent months at Marble Bar
Date/Time
WST
Temp
°C
App
Temp
°C
Dew
Point
°C
Rel
Hum
%
Delta-T
°C
Wind Press
QNH
hPa
Press
MSL
hPa
Rain since
9am
mm
Dir  Spd
km/h
Gust
km/h
Spd
kts
Gust
kts
25/09:30pm 22.4 18.9 1.4 25 9.8 SE 9 13 5 7 1019.3 1018.8 0.0
25/09:00pm 22.1 19.1 1.7 26 9.5 SSE 7 11 4 6 1019.3 1018.8 0.0
25/08:30pm 23.0 18.9 2.5 26 9.8 SE 13 17 7 9 1018.9 1018.4 0.0
25/08:00pm 23.2 19.6 3.2 27 9.7 SE 11 15 6 8 1018.7 1018.2 0.0
25/07:30pm 23.2 19.8 4.2 29 9.4 SE 11 15 6 8 1018.3 1017.8 0.0
25/07:00pm 23.2 20.6 4.2 29 9.4 ESE 7 9 4 5 1017.9 1017.4 0.0
25/06:30pm 24.1 21.6 4.5 28 9.8 SE 7 9 4 5 1017.9 1017.4 0.0
25/06:00pm 25.2 22.2 4.3 26 10.5 ESE 9 13 5 7 1017.4 1016.9 0.0
25/05:30pm 26.1 22.3 4.0 24 11.1 ESE 13 19 7 10 1017.0 1016.5 0.0
25/05:00pm 26.7 23.0 4.5 24 11.3 SE 13 20 7 11 1016.7 1016.2 0.0
25/04:30pm 27.3 22.8 4.4 23 11.7 SE 17 24 9 13 1016.7 1016.2 0.0
25/04:00pm 27.6 24.0 5.2 24 11.6 SE 13 22 7 12 1016.5 1016.0 0.0
25/03:30pm 27.5 23.9 5.1 24 11.6 SE 13 22 7 12 1016.4 1015.9 0.0
25/03:00pm 27.5 23.7 5.7 25 11.4 SSE 15 20 8 11 1016.4 1015.9 0.0
25/02:30pm 27.2 22.8 4.9 24 11.5 SE 17 24 9 13 1016.6 1016.1 0.0
25/02:00pm 27.2 22.7 4.3 23 11.7 SE 17 24 9 13 1016.6 1016.1 0.0
25/01:30pm 27.1 22.0 2.9 21 12.0 ESE 19 28 10 15 1017.2 1016.7 0.0
25/01:00pm 26.5 21.7 2.4 21 11.8 ESE 17 26 9 14 1018.0 1017.5 0.0
25/12:30pm 25.8 20.6 2.5 22 11.4 SE 19 28 10 15 1018.6 1018.1 0.0
25/12:00pm 25.3 19.8 2.1 22 11.2 SE 20 28 11 15 1019.2 1018.7 0.0
25/11:30am 24.5 19.5 1.4 22 11.0 SE 17 30 9 16 1019.7 1019.2 0.0
25/11:00am 23.7 18.1 1.4 23 10.5 ESE 20 26 11 14 1020.4 1019.9 0.0
25/10:30am 22.6 17.2 1.0 24 10.0 SE 19 28 10 15 1020.7 1020.2 0.0
25/10:00am 22.1 16.7 1.2 25 9.7 SE 19 24 10 13 1020.7 1020.2 0.0
25/09:30am 20.9 15.3 1.2 27 9.1 SE 20 28 11 15 1021.0 1020.5 0.0
25/09:00am 20.0 14.4 1.4 29 8.5 ESE 20 26 11 14 1021.1 1020.6 0.0
25/08:30am 19.3 14.3 1.3 30 8.2 ESE 17 24 9 13 1021.0 1020.5 0.0
25/08:00am 18.9 13.6 1.9 32 7.8 SE 19 24 10 13 1020.7 1020.2 0.0
25/07:30am 18.6 14.5 2.4 34 7.5 SE 13 22 7 12 1020.5 1020.0 0.0
25/07:00am 18.5 13.7 2.4 34 7.4 SE 17 24 9 13 1020.1 1019.6 0.0
25/06:30am 18.3 14.7 3.0 36 7.1 SSE 11 17 6 9 1019.9 1019.4 0.0
25/06:00am 18.6 13.9 2.9 35 7.3 SE 17 22 9 12 1019.6 1019.1 0.0
25/05:30am 18.5 14.6 3.2 36 7.2 SSE 13 19 7 10 1019.3 1018.8 0.0
25/05:00am 18.6 14.2 2.9 35 7.3 SSE 15 20 8 11 1019.0 1018.5 0.0
25/04:30am 18.8 14.8 2.6 34 7.5 SSE 13 19 7 10 1019.0 1018.5 0.0
25/04:00am 18.7 14.7 2.9 35 7.4 SSE 13 19 7 10 1018.8 1018.3 0.0
25/03:30am 18.8 15.3 3.4 36 7.3 SSE 11 15 6 8 1018.9 1018.4 0.0
25/03:00am 18.7 14.9 3.7 37 7.1 SSE 13 19 7 10 1019.0 1018.5 0.0
25/02:30am 18.6 15.2 4.0 38 7.0 SSE 11 15 6 8 1019.2 1018.7 0.0
25/02:00am 18.7 15.3 4.1 38 7.0 SSE 11 17 6 9 1019.5 1019.0 0.0
25/01:30am 18.8 15.1 4.2 38 7.0 SSE 13 17 7 9 1019.6 1019.1 0.0
25/01:00am 18.9 14.8 4.3 38 7.0 SSE 15 19 8 10 1019.8 1019.3 0.0
25/12:30am 19.1 15.9 5.2 40 6.8 SSE 11 17 6 9 1019.9 1019.4 0.0
25/12:00am 19.1 15.3 5.6 41 6.7 SSE 15 20 8 11 1019.9 1019.4 0.0
 
Date/Time
WST
Temp
°C
App
Temp
°C
Dew
Point
°C
Rel
Hum
%
Delta-T
°C
Wind Press
QNH
hPa
Press
MSL
hPa
Rain since
9am
mm
Dir  Spd
km/h
Gust
km/h
Spd
kts
Gust
kts
24/11:30pm 19.3 15.4 5.4 40 6.9 SSE 15 22 8 12 1020.1 1019.6 0.0
24/11:00pm 19.6 15.2 4.5 37 7.3 SSE 17 22 9 12 1020.2 1019.7 0.0
24/10:30pm 19.9 15.6 5.2 38 7.3 SSE 17 24 9 13 1020.4 1019.9 0.0
24/10:00pm 20.4 16.3 4.4 35 7.8 SSE 15 20 8 11 1020.3 1019.8 0.0
24/09:30pm 20.9 16.4 4.0 33 8.2 SSE 17 24 9 13 1020.2 1019.7 0.0
24/09:00pm 21.1 16.9 3.8 32 8.4 SSE 15 19 8 10 1020.3 1019.8 0.0
24/08:30pm 21.4 16.3 4.0 32 8.5 SE 20 28 11 15 1019.9 1019.4 0.0
24/08:00pm 21.8 17.6 3.9 31 8.7 SSE 15 22 8 12 1019.7 1019.2 0.0
24/07:30pm 22.4 16.9 4.0 30 9.0 SE 22 32 12 17 1019.3 1018.8 0.0
24/07:00pm 22.7 16.9 4.2 30 9.1 SSE 24 33 13 18 1019.0 1018.5 0.0
24/06:30pm 23.3 17.7 5.2 31 9.1 SE 24 35 13 19 1018.4 1017.9 0.0
24/06:00pm 23.7 18.1 5.6 31 9.2 SSE 24 33 13 18 1018.1 1017.6 0.0
24/05:30pm 24.0 18.8 5.4 30 9.5 SE 22 32 12 17 1017.8 1017.3 0.0
24/05:00pm 24.2 19.6 5.5 30 9.5 SE 19 26 10 14 1017.4 1016.9 0.0
24/04:30pm 24.1 19.6 5.9 31 9.4 SSE 19 28 10 15 1017.4 1016.9 0.0
24/04:00pm 22.8 17.8 8.1 39 7.8 SE 24 33 13 18 1017.2 1016.7 0.0
24/03:30pm 24.0 19.4 5.8 31 9.3 SSE 19 28 10 15 1017.3 1016.8 0.0
24/03:00pm 24.7 20.5 5.5 29 9.8 SSE 17 26 9 14 1017.3 1016.8 0.0
24/02:30pm 24.8 20.6 5.6 29 9.9 SSE 17 24 9 13 1017.4 1016.9 0.0
24/02:00pm 24.8 20.0 5.6 29 9.8 SSE 20 28 11 15 1017.3 1016.8 0.0
24/01:30pm 25.7 21.0 5.3 27 10.5 SSE 19 28 10 15 1017.6 1017.2 0.0
24/01:00pm 24.4 19.4 4.7 28 9.9 SE 20 28 11 15 1018.1 1017.6 0.0
24/12:30pm 24.0 18.7 4.9 29 9.6 SE 22 32 12 17 1018.5 1018.0 0.0
24/12:00pm 24.1 18.8 5.0 29 9.6 SE 22 32 12 17 1019.1 1018.6 0.0
24/11:30am 22.7 17.0 4.7 31 9.0 SE 24 33 13 18 1019.6 1019.1 0.0
24/11:00am 22.0 16.3 5.0 33 8.5 ESE 24 35 13 19 1020.2 1019.7 0.0
24/10:30am 21.4 15.3 4.9 34 8.2 SE 26 37 14 20 1020.4 1019.9 0.0
24/10:00am 21.0 15.8 5.4 36 7.8 SE 22 37 12 20 1020.6 1020.1 0.0
24/09:30am 20.3 14.0 5.5 38 7.4 SE 28 35 15 19 1020.8 1020.3 0.0
24/09:00am 20.0 13.7 5.6 39 7.1 ESE 28 37 15 20 1021.0 1020.5 0.0
24/08:30am 20.0 14.1 5.6 39 7.2 ESE 26 33 14 18 1020.6 1020.1 0.0
24/08:00am 19.4 14.2 5.5 40 6.9 SE 22 33 12 18 1020.3 1019.8 0.0
24/07:30am 19.0 13.6 6.2 43 6.4 SE 24 33 13 18 1020.0 1019.5 0.0
24/07:00am 18.7 13.7 6.5 45 6.1 SE 22 32 12 17 1019.6 1019.1 0.0
24/06:30am 18.7 13.7 6.5 45 6.1 SE 22 30 12 16 1019.0 1018.5 0.0
24/06:00am 18.9 13.6 7.0 46 6.0 SE 24 35 13 19 1018.9 1018.4 0.0
24/05:30am 18.8 14.7 7.9 49 5.6 ESE 19 28 10 15 1018.3 1017.8 0.0
24/05:00am 18.9 14.8 8.0 49 5.6 ESE 19 26 10 14 1018.0 1017.5 0.0
24/04:30am 19.1 15.8 8.1 49 5.7 SE 15 20 8 11 1018.1 1017.6 0.0
24/04:00am 19.2 15.2 8.2 49 5.7 SE 19 26 10 14 1018.2 1017.7 0.0
24/03:30am 19.7 15.5 8.4 48 5.9 SSE 20 28 11 15 1018.0 1017.5 0.0
24/03:00am 20.1 16.6 8.8 48 6.0 SSE 17 24 9 13 1017.9 1017.4 0.0
24/02:30am 20.6 16.8 9.2 48 6.1 SE 19 28 10 15 1017.6 1017.2 0.0
24/02:00am 20.9 17.0 9.5 48 6.1 SSE 20 28 11 15 1017.8 1017.3 0.0
24/01:30am 21.1 18.1 9.4 47 6.3 SE 15 20 8 11 1017.5 1017.1 0.0
24/01:00am 21.4 18.0 9.3 46 6.5 SE 17 22 9 12 1017.9 1017.4 0.0
24/12:30am 21.6 17.9 9.5 46 6.5 SE 19 24 10 13 1017.8 1017.3 0.0
24/12:00am 21.9 19.3 9.4 45 6.8 SE 13 20 7 11 1017.9 1017.4 0.0
 
Date/Time
WST
Temp
°C
App
Temp
°C
Dew
Point
°C
Rel
Hum
%
Delta-T
°C
Wind Press
QNH
hPa
Press
MSL
hPa
Rain since
9am
mm
Dir  Spd
km/h
Gust
km/h
Spd
kts
Gust
kts
23/11:30pm 21.7 18.2 8.6 43 7.0 SSE 17 24 9 13 1017.8 1017.3 0.0
23/11:00pm 21.9 17.9 8.4 42 7.2 SSE 19 24 10 13 1017.8 1017.3 0.0
23/10:30pm 22.1 18.1 8.2 41 7.4 SE 19 26 10 14 1017.6 1017.2 0.0
23/10:00pm 22.5 17.9 8.2 40 7.6 SE 22 30 12 16 1017.5 1017.1 0.0
23/09:30pm 23.1 18.1 8.0 38 8.0 SE 24 33 13 18 1017.3 1016.8 0.0
23/09:00pm 23.6 18.9 7.7 36 8.4 SE 22 33 12 18 1017.2 1016.7 0.0
23/08:30pm 24.0 19.7 8.0 36 8.5 SSE 20 30 11 16 1017.1 1016.6 0.0
23/08:00pm 25.0 20.3 9.3 37 8.6 SSE 24 33 13 18 1016.8 1016.3 0.0
23/07:30pm 25.4 21.6 9.7 37 8.7 SSE 20 32 11 17 1016.5 1016.0 0.0
23/07:00pm 26.0 22.3 9.4 35 9.2 SSE 19 30 10 16 1016.1 1015.6 0.0
23/06:30pm 26.6 24.3 7.6 30 10.2 SSE 9 13 5 7 1015.8 1015.3 0.0
23/06:00pm 27.3 24.6 7.2 28 10.8 SE 11 15 6 8 1015.5 1015.0 0.0
23/05:30pm 28.0 25.3 7.3 27 11.2 SSE 11 15 6 8 1015.1 1014.6 0.0
23/05:00pm 28.8 25.6 6.8 25 11.8 SSE 13 17 7 9 1015.0 1014.5 0.0
23/04:30pm 29.5 26.4 7.4 25 12.0 SSE 13 19 7 10 1014.9 1014.4 0.0
23/04:00pm 29.6 26.9 7.5 25 12.1 SE 11 17 6 9 1014.9 1014.4 0.0
23/03:30pm 29.4 26.7 7.3 25 12.0 SSE 11 20 6 11 1014.8 1014.3 0.0
23/03:00pm 29.6 27.7 7.5 25 12.1 ESE 7 15 4 8 1014.8 1014.3 0.0
23/02:30pm 29.5 26.8 7.4 25 12.0 SSE 11 17 6 9 1015.3 1014.8 0.0
23/02:00pm 28.6 26.4 7.8 27 11.3 SE 9 20 5 11 1015.7 1015.2 0.0
23/01:30pm 28.6 25.6 7.8 27 11.3 SSE 13 20 7 11 1016.1 1015.6 0.0
23/01:00pm 28.1 25.5 7.9 28 11.0 SE 11 20 6 11 1016.4 1015.9 0.0
23/12:30pm 27.9 24.8 7.2 27 11.1 SE 13 24 7 13 1016.9 1016.4 0.0
23/12:00pm 27.6 24.4 6.9 27 11.0 SE 13 20 7 11 1017.5 1017.1 0.0
23/11:30am 26.8 23.6 6.8 28 10.6 SE 13 20 7 11 1018.1 1017.6 0.0
23/11:00am 26.4 22.7 6.4 28 10.5 SE 15 20 8 11 1018.5 1018.0 0.0
23/10:30am 25.7 22.4 6.3 29 10.1 SE 13 20 7 11 1019.0 1018.5 0.0
23/10:00am 24.8 21.4 6.1 30 9.7 SE 13 20 7 11 1019.3 1018.8 0.0
23/09:30am 24.0 20.2 5.8 31 9.3 SE 15 22 8 12 1019.4 1018.9 0.0
23/09:00am 22.9 18.3 5.8 33 8.7 SE 19 24 10 13 1019.6 1019.1 0.0
23/08:30am 21.7 17.9 5.6 35 8.1 SE 15 19 8 10 1019.3 1018.8 0.0
23/08:00am 20.4 17.2 5.2 37 7.5 SSE 11 15 6 8 1019.1 1018.6 0.0
23/07:30am 19.6 15.7 5.3 39 7.1 SSE 15 19 8 10 1018.8 1018.3 0.0
23/07:00am 19.6 16.8 5.3 39 7.0 SSE 9 15 5 8 1018.6 1018.1 0.0
23/06:30am 19.4 16.4 5.8 41 6.8 SSE 11 15 6 8 1018.3 1017.8 0.0
23/06:00am 19.3 16.6 5.7 41 6.7 SSE 9 13 5 7 1017.9 1017.4 0.0
23/05:30am 19.6 16.6 6.0 41 6.8 SSE 11 15 6 8 1017.6 1017.2 0.0
23/05:00am 19.9 16.9 5.9 40 7.0 SSE 11 20 6 11 1017.4 1016.9 0.0
23/04:30am 20.3 17.2 5.5 38 7.4 SSE 11 19 6 10 1017.1 1016.6 0.0
23/04:00am 20.4 17.5 6.4 40 7.1 SSE 11 15 6 8 1017.0 1016.5 0.0
23/03:30am 20.6 17.3 6.5 40 7.2 SSE 13 17 7 9 1017.0 1016.5 0.0
23/03:00am 20.8 17.6 6.7 40 7.2 SSE 13 20 7 11 1017.2 1016.7 0.0
23/02:30am 20.8 17.9 6.7 40 7.2 S 11 17 6 9 1017.2 1016.7 0.0
23/02:00am 21.1 18.2 6.6 39 7.4 SSE 11 19 6 10 1017.2 1016.7 0.0
23/01:30am 21.3 18.1 6.8 39 7.5 SSE 13 19 7 10 1017.3 1016.8 0.0
23/01:00am 21.6 18.0 6.7 38 7.6 SSE 15 20 8 11 1017.2 1016.7 0.0
23/12:30am 21.9 17.9 6.6 37 7.9 SSE 17 24 9 13 1017.4 1016.9 0.0
23/12:00am 22.3 18.5 5.7 34 8.4 SSE 15 20 8 11 1017.5 1017.1 0.0
 
Date/Time
WST
Temp
°C
App
Temp
°C
Dew
Point
°C
Rel
Hum
%
Delta-T
°C
Wind Press
QNH
hPa
Press
MSL
hPa
Rain since
9am
mm
Dir  Spd
km/h
Gust
km/h
Spd
kts
Gust
kts
22/11:30pm 22.6 19.0 5.1 32 8.8 SSE 13 19 7 10 1017.8 1017.3 0.0
22/11:00pm 22.7 19.0 4.7 31 9.0 SE 13 17 7 9 1017.5 1017.1 0.0
22/10:30pm 22.8 19.9 4.8 31 9.0 SE 9 13 5 7 1017.6 1017.2 0.0
22/10:00pm 23.2 19.5 4.7 30 9.2 SSE 13 17 7 9 1017.5 1017.1 0.0

Other Formats:

Comma delimited format used in spreadsheet applications
http://www.bom.gov.au/fwo/IDW60801/IDW60801.95317.axf

JavaScript Object Notation format (JSON) in row-major order
http://www.bom.gov.au/fwo/IDW60801/IDW60801.95317.json